createdAt,value
2019-05-23T00:00:38.439Z,74.79
2019-05-23T00:01:38.411Z,75.00
2019-05-23T00:02:38.412Z,75.00
2019-05-23T00:03:38.432Z,75.04
2019-05-23T00:04:38.389Z,75.04
2019-05-23T00:05:38.369Z,75.13
2019-05-23T00:06:38.378Z,74.93
2019-05-23T00:07:38.358Z,75.04
2019-05-23T00:08:38.347Z,75.13
2019-05-23T00:09:38.348Z,75.13
2019-05-23T00:10:38.394Z,75.24
2019-05-23T00:11:40.102Z,75.24
2019-05-23T00:12:38.306Z,75.13
2019-05-23T00:13:38.310Z,75.24
2019-05-23T00:14:38.273Z,75.04
2019-05-23T00:15:38.288Z,75.04
2019-05-23T00:16:38.255Z,75.13
2019-05-23T00:17:38.254Z,75.13
2019-05-23T00:18:38.253Z,75.04
2019-05-23T00:19:38.232Z,75.24
2019-05-23T00:20:38.219Z,75.34
2019-05-23T00:21:38.201Z,75.44
2019-05-23T00:22:38.187Z,75.34
2019-05-23T00:23:38.193Z,75.54
2019-05-23T00:24:38.171Z,75.65
2019-05-23T00:25:38.163Z,75.65
2019-05-23T00:26:38.161Z,75.65
2019-05-23T00:27:38.138Z,75.95
2019-05-23T00:28:38.139Z,75.65
2019-05-23T00:29:40.423Z,75.65
2019-05-23T00:30:38.112Z,75.75
2019-05-23T00:31:38.097Z,75.95
2019-05-23T00:32:38.102Z,75.95
2019-05-23T00:33:38.078Z,76.06
2019-05-23T00:34:38.085Z,76.06
2019-05-23T00:35:38.047Z,76.56
2019-05-23T00:36:38.036Z,76.36
2019-05-23T00:37:38.046Z,76.19
2019-05-23T00:38:38.066Z,76.50
2019-05-23T00:39:38.017Z,76.60
2019-05-23T00:40:38.039Z,76.70
2019-05-23T00:41:38.005Z,76.40
2019-05-23T00:42:38.007Z,76.50
2019-05-23T00:43:37.971Z,76.40
2019-05-23T00:44:37.963Z,76.50
2019-05-23T00:45:37.968Z,76.60
2019-05-23T00:46:37.953Z,76.40
2019-05-23T00:47:37.942Z,76.50
2019-05-23T00:48:37.936Z,76.60
2019-05-23T00:49:37.933Z,76.50
2019-05-23T00:50:37.919Z,76.50
2019-05-23T00:51:37.893Z,76.50
2019-05-23T00:52:37.869Z,76.40
2019-05-23T00:53:37.898Z,76.29
2019-05-23T00:54:37.880Z,76.29
2019-05-23T00:55:37.840Z,76.40
2019-05-23T00:56:37.836Z,76.40
2019-05-23T00:57:37.820Z,76.29
2019-05-23T00:58:37.809Z,76.29
2019-05-23T00:59:37.809Z,76.40
2019-05-23T01:00:37.796Z,76.29
2019-05-23T01:01:37.943Z,76.40
2019-05-23T01:02:37.766Z,76.50
2019-05-23T01:03:37.746Z,76.60
2019-05-23T01:04:37.755Z,76.50
2019-05-23T01:05:37.729Z,76.70
2019-05-23T01:06:37.738Z,76.90
2019-05-23T01:07:37.705Z,76.84
2019-05-23T01:08:37.707Z,77.01
2019-05-23T01:09:37.710Z,76.94
2019-05-23T01:10:37.674Z,77.04
2019-05-23T01:11:37.679Z,77.04
2019-05-23T01:13:47.941Z,77.45
2019-05-23T01:14:47.579Z,77.45
2019-05-23T01:15:46.567Z,77.35
2019-05-23T01:16:46.538Z,77.45
2019-05-23T01:17:46.527Z,77.45
2019-05-23T01:18:46.518Z,77.66
2019-05-23T01:19:46.518Z,77.76
2019-05-23T01:20:46.497Z,77.97
2019-05-23T01:21:46.767Z,77.86
2019-05-23T01:22:46.479Z,78.17
2019-05-23T01:23:46.483Z,78.07
2019-05-23T01:24:46.465Z,78.17
2019-05-23T01:25:46.467Z,78.27
2019-05-23T01:26:46.434Z,78.17
2019-05-23T01:27:46.429Z,78.07
2019-05-23T01:28:46.492Z,78.17
2019-05-23T01:29:49.649Z,78.07
2019-05-23T01:30:46.403Z,78.17
2019-05-23T01:31:46.402Z,78.07
2019-05-23T01:32:46.374Z,78.00
2019-05-23T01:33:46.351Z,78.00
2019-05-23T01:34:46.352Z,78.00
2019-05-23T01:35:46.351Z,78.00
2019-05-23T01:36:46.331Z,78.20
2019-05-23T01:37:46.310Z,78.00
2019-05-23T01:38:46.300Z,77.90
2019-05-23T01:39:46.312Z,78.11
2019-05-23T01:40:46.299Z,77.90
2019-05-23T01:41:46.288Z,77.90
2019-05-23T01:42:46.303Z,78.00
2019-05-23T01:43:46.248Z,78.11
2019-05-23T01:44:46.239Z,78.20
2019-05-23T01:45:46.241Z,78.20
2019-05-23T01:46:46.217Z,78.31
2019-05-23T01:47:46.227Z,78.31
2019-05-23T01:48:46.198Z,78.31
2019-05-23T01:49:46.187Z,78.31
2019-05-23T01:50:46.196Z,78.52
2019-05-23T01:51:46.165Z,78.52
2019-05-23T01:52:46.164Z,78.52
2019-05-23T01:53:46.144Z,78.31
2019-05-23T01:54:46.133Z,78.41
2019-05-23T01:55:46.133Z,78.31
2019-05-23T01:56:46.122Z,78.31
2019-05-23T01:57:46.103Z,78.20
2019-05-23T01:58:46.102Z,77.80
2019-05-23T01:59:46.081Z,77.70
2019-05-23T02:00:46.092Z,77.59
2019-05-23T02:01:46.061Z,77.49
2019-05-23T02:02:46.046Z,77.59
2019-05-23T02:03:46.033Z,77.70
2019-05-23T02:04:46.028Z,77.49
2019-05-23T02:05:46.028Z,77.70
2019-05-23T02:06:46.008Z,77.49
2019-05-23T02:07:45.998Z,77.29
2019-05-23T02:08:46.000Z,77.29
2019-05-23T02:09:45.979Z,77.49
2019-05-23T02:10:46.013Z,77.49
2019-05-23T02:11:45.952Z,77.39
2019-05-23T02:12:45.962Z,77.08
2019-05-23T02:13:45.937Z,77.15
2019-05-23T02:14:45.972Z,77.04
2019-05-23T02:15:45.906Z,77.04
2019-05-23T02:16:45.895Z,76.84
2019-05-23T02:17:45.903Z,76.84
2019-05-23T02:18:45.875Z,76.64
2019-05-23T02:19:45.875Z,76.74
2019-05-23T02:20:45.856Z,76.64
2019-05-23T02:21:45.846Z,76.53
2019-05-23T02:22:45.832Z,76.26
2019-05-23T02:23:45.833Z,76.26
2019-05-23T02:24:45.815Z,76.67
2019-05-23T02:25:45.807Z,76.26
2019-05-23T02:26:45.789Z,76.26
2019-05-23T02:27:45.772Z,76.26
2019-05-23T02:28:45.772Z,76.57
2019-05-23T02:29:45.768Z,76.47
2019-05-23T02:30:45.752Z,76.16
2019-05-23T02:31:45.756Z,76.16
2019-05-23T02:32:45.720Z,76.26
2019-05-23T02:33:45.729Z,76.26
2019-05-23T02:34:45.708Z,76.16
2019-05-23T02:35:45.689Z,76.06
2019-05-23T02:36:45.690Z,75.96
2019-05-23T02:37:45.667Z,76.26
2019-05-23T02:38:45.668Z,75.85
2019-05-23T02:39:45.645Z,75.55
2019-05-23T02:40:45.648Z,75.65
2019-05-23T02:41:45.626Z,75.34
2019-05-23T02:42:45.619Z,75.55
2019-05-23T02:43:45.611Z,75.24
2019-05-23T02:44:45.607Z,75.14
2019-05-23T02:45:45.585Z,75.04
2019-05-23T02:46:45.587Z,74.93
2019-05-23T02:47:45.572Z,75.04
2019-05-23T02:48:45.544Z,74.84
2019-05-23T02:49:45.547Z,74.93
2019-05-23T02:50:45.523Z,74.84
2019-05-23T02:51:45.572Z,75.04
2019-05-23T02:52:45.501Z,74.84
2019-05-23T02:53:45.503Z,74.63
2019-05-23T02:54:45.501Z,74.63
2019-05-23T02:55:45.474Z,74.52
2019-05-23T02:56:45.496Z,74.32
2019-05-23T02:57:45.470Z,74.11
2019-05-23T02:58:45.459Z,74.11
2019-05-23T02:59:45.541Z,74.11
2019-05-23T03:00:54.249Z,74.32
2019-05-23T03:01:46.417Z,74.32
2019-05-23T03:02:45.399Z,74.32
2019-05-23T03:03:45.389Z,74.22
2019-05-23T03:04:45.379Z,74.22
2019-05-23T03:05:45.378Z,74.11
2019-05-23T03:06:45.366Z,74.22
2019-05-23T03:07:45.358Z,74.32
2019-05-23T03:08:45.354Z,74.52
2019-05-23T03:09:45.330Z,74.52
2019-05-23T03:10:45.316Z,74.52
2019-05-23T03:11:45.307Z,74.63
2019-05-23T03:12:45.305Z,74.63
2019-05-23T03:13:45.284Z,74.93
2019-05-23T03:14:45.287Z,74.84
2019-05-23T03:15:45.267Z,75.04
2019-05-23T03:16:45.251Z,74.93
2019-05-23T03:17:45.260Z,74.84
2019-05-23T03:18:45.247Z,74.93
2019-05-23T03:19:45.241Z,74.84
2019-05-23T03:20:45.209Z,74.84
2019-05-23T03:21:45.199Z,74.93
2019-05-23T03:22:45.203Z,75.14
2019-05-23T03:23:45.180Z,75.24
2019-05-23T03:24:45.168Z,75.34
2019-05-23T03:25:45.158Z,75.59
2019-05-23T03:26:45.151Z,75.79
2019-05-23T03:27:45.158Z,75.59
2019-05-23T03:28:45.118Z,75.48
2019-05-23T03:29:45.116Z,75.24
2019-05-23T03:30:45.124Z,75.24
2019-05-23T03:31:45.120Z,75.04
2019-05-23T03:32:45.076Z,74.93
2019-05-23T03:33:45.076Z,74.93
2019-05-23T03:34:45.122Z,74.84
2019-05-23T03:35:45.066Z,75.04
2019-05-23T03:36:45.047Z,75.04
2019-05-23T03:37:45.135Z,75.14
2019-05-23T03:38:45.015Z,75.14
2019-05-23T03:39:45.007Z,75.14
2019-05-23T03:40:44.992Z,75.34
2019-05-23T03:41:44.985Z,75.24
2019-05-23T03:42:44.983Z,75.34
2019-05-23T03:43:44.970Z,75.24
2019-05-23T03:44:44.957Z,75.38
2019-05-23T03:45:44.931Z,75.14
2019-05-23T03:46:44.940Z,75.34
2019-05-23T03:47:44.918Z,75.24
2019-05-23T03:48:44.918Z,75.34
2019-05-23T03:49:44.900Z,75.34
2019-05-23T03:50:44.889Z,75.34
2019-05-23T03:51:44.881Z,75.04
2019-05-23T03:52:44.865Z,75.04
2019-05-23T03:53:44.866Z,75.14
2019-05-23T03:54:44.848Z,75.34
2019-05-23T03:55:44.830Z,75.34
2019-05-23T03:56:44.826Z,75.34
2019-05-23T03:57:44.807Z,75.34
2019-05-23T03:58:44.827Z,75.34
2019-05-23T03:59:44.795Z,75.34
2019-05-23T04:00:44.785Z,75.24
2019-05-23T04:01:48.311Z,75.24
2019-05-23T04:02:44.764Z,75.14
2019-05-23T04:03:44.775Z,75.34
2019-05-23T04:04:44.743Z,75.24
2019-05-23T04:05:44.722Z,75.14
2019-05-23T04:06:44.733Z,75.24
2019-05-23T04:07:44.718Z,75.24
2019-05-23T04:08:44.691Z,75.24
2019-05-23T04:09:44.702Z,75.34
2019-05-23T04:10:45.281Z,75.04
2019-05-23T04:11:44.698Z,75.14
2019-05-23T04:12:44.683Z,75.24
2019-05-23T04:13:44.639Z,75.45
2019-05-23T04:14:44.647Z,75.24
2019-05-23T04:15:44.632Z,75.14
2019-05-23T04:16:44.611Z,75.24
2019-05-23T04:17:44.607Z,75.34
2019-05-23T04:18:44.586Z,75.04
2019-05-23T04:19:44.608Z,74.84
2019-05-23T04:20:44.566Z,74.93
2019-05-23T04:21:44.557Z,74.93
2019-05-23T04:22:44.557Z,74.84
2019-05-23T04:23:44.535Z,74.84
2019-05-23T04:24:44.536Z,74.84
2019-05-23T04:25:44.514Z,74.73
2019-05-23T04:26:44.528Z,74.63
2019-05-23T04:27:44.495Z,74.49
2019-05-23T04:28:44.483Z,74.59
2019-05-23T04:29:44.476Z,74.80
2019-05-23T04:30:44.471Z,74.59
2019-05-23T04:31:44.452Z,74.49
2019-05-23T04:32:44.452Z,74.18
2019-05-23T04:33:44.432Z,73.88
2019-05-23T04:34:44.440Z,73.88
2019-05-23T04:35:44.430Z,73.54
2019-05-23T04:36:44.396Z,73.33
2019-05-23T04:37:44.379Z,72.82
2019-05-23T04:38:44.388Z,71.97
2019-05-23T04:39:44.370Z,71.36
2019-05-23T04:40:44.349Z,71.22
2019-05-23T04:41:44.339Z,71.02
2019-05-23T04:42:44.337Z,70.81
2019-05-23T04:43:44.345Z,70.57
2019-05-23T04:44:44.898Z,69.86
2019-05-23T04:45:44.316Z,69.66
2019-05-23T04:46:44.299Z,69.76
2019-05-23T04:47:44.294Z,69.96
2019-05-23T04:48:44.265Z,69.86
2019-05-23T04:49:44.264Z,70.07
2019-05-23T04:50:44.254Z,69.86
2019-05-23T04:51:44.235Z,69.76
2019-05-23T04:52:44.223Z,69.96
2019-05-23T04:53:44.224Z,69.86
2019-05-23T04:54:44.214Z,70.07
2019-05-23T04:55:44.223Z,70.37
2019-05-23T04:56:44.184Z,70.37
2019-05-23T04:57:44.175Z,70.68
2019-05-23T04:58:44.185Z,70.27
2019-05-23T04:59:44.163Z,70.17
2019-05-23T05:00:44.153Z,70.07
2019-05-23T05:01:44.136Z,69.46
2019-05-23T05:02:44.131Z,69.56
2019-05-23T05:03:44.110Z,69.35
2019-05-23T05:04:44.103Z,69.15
2019-05-23T05:05:44.098Z,69.25
2019-05-23T05:06:44.079Z,69.46
2019-05-23T05:07:44.078Z,69.15
2019-05-23T05:08:44.050Z,68.91
2019-05-23T05:09:44.057Z,68.81
2019-05-23T05:10:44.045Z,68.81
2019-05-23T05:11:44.015Z,68.81
2019-05-23T05:12:44.016Z,68.37
2019-05-23T05:13:43.995Z,67.76
2019-05-23T05:14:43.994Z,67.12
2019-05-23T05:15:43.995Z,67.12
2019-05-23T05:16:43.973Z,66.38
2019-05-23T05:17:43.980Z,65.36
2019-05-23T05:18:43.978Z,65.02
2019-05-23T05:19:43.957Z,64.51
2019-05-23T05:20:43.950Z,64.38
2019-05-23T05:21:43.913Z,63.77
2019-05-23T05:22:43.921Z,63.46
2019-05-23T05:23:43.891Z,62.79
2019-05-23T05:24:43.881Z,60.88
2019-05-23T05:25:43.870Z,59.63
2019-05-23T05:26:43.880Z,59.03
2019-05-23T05:27:43.852Z,59.56
2019-05-23T05:28:43.911Z,60.10
2019-05-23T05:29:43.829Z,61.37
2019-05-23T05:30:43.849Z,62.11
2019-05-23T05:31:44.620Z,62.52
2019-05-23T05:32:45.553Z,62.62
2019-05-23T05:33:43.788Z,62.52
2019-05-23T05:34:43.776Z,62.32
2019-05-23T05:35:43.795Z,62.32
2019-05-23T05:36:43.758Z,62.72
2019-05-23T05:37:43.780Z,63.02
2019-05-23T05:38:43.743Z,62.93
2019-05-23T05:39:43.716Z,61.95
2019-05-23T05:40:43.719Z,61.01
2019-05-23T05:41:43.694Z,60.71
2019-05-23T05:42:43.685Z,60.81
2019-05-23T05:43:43.704Z,60.91
2019-05-23T05:44:43.685Z,61.01
2019-05-23T05:45:43.647Z,61.44
2019-05-23T05:46:43.665Z,61.72
2019-05-23T05:47:43.658Z,61.08
2019-05-23T05:48:43.624Z,59.81
2019-05-23T05:49:43.623Z,58.54
2019-05-23T05:50:43.607Z,56.84
2019-05-23T05:51:43.592Z,54.13
2019-05-23T05:52:43.603Z,52.04
2019-05-23T05:53:43.581Z,50.23
2019-05-23T05:54:43.550Z,47.82
2019-05-23T05:55:43.551Z,45.65
2019-05-23T05:56:43.534Z,43.77
2019-05-23T05:57:43.602Z,42.74
2019-05-23T05:58:43.526Z,42.02
2019-05-23T05:59:43.501Z,41.49
2019-05-23T06:00:43.523Z,40.97
2019-05-23T06:01:43.479Z,40.47
2019-05-23T06:03:00.787Z,40.58
2019-05-23T06:03:44.459Z,40.67
2019-05-23T06:04:43.453Z,40.36
2019-05-23T06:05:43.447Z,39.84
2019-05-23T06:06:43.422Z,39.76
2019-05-23T06:07:43.417Z,40.06
2019-05-23T06:08:43.396Z,40.50
2019-05-23T06:09:43.386Z,41.85
2019-05-23T06:10:44.160Z,44.06
2019-05-23T06:11:43.366Z,46.76
2019-05-23T06:12:43.356Z,49.29
2019-05-23T06:13:43.345Z,51.45
2019-05-23T06:14:46.534Z,53.25
2019-05-23T06:15:43.339Z,54.69
2019-05-23T06:16:43.318Z,55.62
2019-05-23T06:17:43.331Z,56.26
2019-05-23T06:18:43.296Z,56.79
2019-05-23T06:19:43.286Z,57.40
2019-05-23T06:20:43.296Z,57.73
2019-05-23T06:21:43.273Z,57.73
2019-05-23T06:22:43.253Z,57.62
2019-05-23T06:23:43.243Z,57.20
2019-05-23T06:24:49.376Z,56.48
2019-05-23T06:25:44.231Z,55.27
2019-05-23T06:26:43.211Z,52.84
2019-05-23T06:27:43.203Z,50.43
2019-05-23T06:28:43.191Z,49.37
2019-05-23T06:29:43.197Z,48.65
2019-05-23T06:30:43.670Z,47.72
2019-05-23T06:31:43.201Z,46.97
2019-05-23T06:32:43.173Z,45.38
2019-05-23T06:33:43.130Z,43.59
2019-05-23T06:34:43.132Z,41.03
2019-05-23T06:35:43.128Z,39.78
2019-05-23T06:36:43.151Z,38.45
2019-05-23T06:37:43.128Z,37.62
2019-05-23T06:38:43.089Z,37.32
2019-05-23T06:39:43.074Z,37.27
2019-05-23T06:40:43.069Z,38.20
2019-05-23T06:41:43.049Z,39.52
2019-05-23T06:42:43.038Z,40.50
2019-05-23T06:43:43.053Z,41.83
2019-05-23T06:44:43.021Z,42.33
2019-05-23T06:45:43.017Z,41.49
2019-05-23T06:46:43.000Z,39.82
2019-05-23T06:47:43.117Z,37.43
2019-05-23T06:48:45.715Z,35.46
2019-05-23T06:49:42.968Z,33.72
2019-05-23T06:50:42.958Z,33.31
2019-05-23T06:51:42.947Z,32.18
2019-05-23T06:52:42.984Z,31.68
2019-05-23T06:53:42.941Z,31.05
2019-05-23T06:54:42.930Z,31.25
2019-05-23T06:55:42.898Z,30.65
2019-05-23T06:56:42.895Z,29.64
2019-05-23T06:57:42.898Z,29.11
2019-05-23T06:58:42.883Z,28.91
2019-05-23T06:59:42.864Z,28.19
2019-05-23T07:00:42.933Z,28.28
2019-05-23T07:01:42.844Z,27.79
2019-05-23T07:02:42.844Z,27.11
2019-05-23T07:03:43.808Z,27.42
2019-05-23T07:04:42.806Z,27.73
2019-05-23T07:05:42.794Z,27.62
2019-05-23T07:06:42.806Z,27.30
2019-05-23T07:07:42.813Z,27.28
2019-05-23T07:08:42.764Z,27.20
2019-05-23T07:09:42.763Z,27.17
2019-05-23T07:10:42.843Z,27.08
2019-05-23T07:11:42.733Z,26.89
2019-05-23T07:12:45.763Z,26.99
2019-05-23T07:13:42.711Z,26.90
2019-05-23T07:14:42.714Z,27.50
2019-05-23T07:15:42.704Z,27.59
2019-05-23T07:16:42.692Z,27.70
2019-05-23T07:17:42.703Z,27.30
2019-05-23T07:18:42.662Z,27.42
2019-05-23T07:19:42.671Z,27.41
2019-05-23T07:20:42.647Z,27.11
2019-05-23T07:21:42.631Z,27.01
2019-05-23T07:22:42.658Z,27.01
2019-05-23T07:23:42.611Z,27.22
2019-05-23T07:24:56.829Z,27.20
2019-05-23T07:25:43.590Z,26.88
2019-05-23T07:26:42.585Z,26.67
2019-05-23T07:27:42.615Z,26.77
2019-05-23T07:28:43.360Z,26.48
2019-05-23T07:29:42.610Z,26.78
2019-05-23T07:30:43.866Z,26.68
2019-05-23T07:31:42.529Z,26.28
2019-05-23T07:32:42.530Z,26.28
2019-05-23T07:34:00.420Z,26.78
2019-05-23T07:34:43.500Z,27.28
2019-05-23T07:35:42.503Z,27.47
2019-05-23T07:36:42.586Z,26.79
2019-05-23T07:37:42.469Z,26.58
2019-05-23T07:38:42.470Z,26.57
2019-05-23T07:39:42.459Z,26.87
2019-05-23T07:40:42.440Z,27.06
2019-05-23T07:41:42.950Z,26.89
2019-05-23T07:42:42.419Z,27.42
2019-05-23T07:43:42.482Z,27.81
2019-05-23T07:44:48.377Z,27.70
2019-05-23T07:45:43.386Z,27.50
2019-05-23T07:46:42.378Z,27.09
2019-05-23T07:47:42.370Z,26.20
2019-05-23T07:48:42.375Z,25.50
2019-05-23T07:49:42.366Z,25.29
2019-05-23T07:50:42.337Z,25.92
2019-05-23T07:51:42.330Z,26.31
2019-05-23T07:52:42.336Z,25.81
2019-05-23T07:53:43.990Z,25.89
2019-05-23T07:54:42.304Z,25.38
2019-05-23T07:55:42.311Z,24.97
2019-05-23T07:56:42.286Z,24.38
2019-05-23T07:57:42.277Z,24.47
2019-05-23T07:58:42.272Z,23.47
2019-05-23T07:59:42.247Z,23.38
2019-05-23T08:00:42.244Z,23.47
2019-05-23T08:01:42.235Z,23.67
2019-05-23T08:02:42.219Z,23.88
2019-05-23T08:03:42.204Z,23.79
2019-05-23T08:04:42.195Z,24.51
2019-05-23T08:05:42.203Z,25.22
2019-05-23T08:06:42.196Z,25.82
2019-05-23T08:07:42.252Z,25.90
2019-05-23T08:08:42.172Z,25.60
2019-05-23T08:09:42.153Z,25.12
2019-05-23T08:10:42.153Z,24.91
2019-05-23T08:11:42.208Z,24.43
2019-05-23T08:12:42.140Z,25.33
2019-05-23T08:13:42.106Z,25.42
2019-05-23T08:14:42.103Z,24.80
2019-05-23T08:15:42.083Z,23.79
2019-05-23T08:16:42.106Z,23.78
2019-05-23T08:17:42.072Z,23.57
2019-05-23T08:18:42.052Z,23.06
2019-05-23T08:19:49.646Z,23.39
2019-05-23T08:20:43.036Z,23.56
2019-05-23T08:21:42.071Z,23.17
2019-05-23T08:22:42.272Z,22.47
2019-05-23T08:23:42.062Z,22.64
2019-05-23T08:24:42.000Z,23.03
2019-05-23T08:25:42.018Z,23.33
2019-05-23T08:26:41.991Z,24.04
2019-05-23T08:27:42.000Z,23.74
2019-05-23T08:29:00.984Z,23.35
2019-05-23T08:29:42.940Z,22.56
2019-05-23T08:30:41.981Z,22.88
2019-05-23T08:31:41.944Z,22.86
2019-05-23T08:32:41.930Z,22.74
2019-05-23T08:33:41.901Z,22.34
2019-05-23T08:34:43.054Z,22.14
2019-05-23T08:35:41.884Z,21.83
2019-05-23T08:36:41.899Z,20.95
2019-05-23T08:37:41.869Z,21.15
2019-05-23T08:38:41.862Z,21.76
2019-05-23T08:39:41.850Z,21.19
2019-05-23T08:40:41.839Z,21.37
2019-05-23T08:41:41.841Z,21.78
2019-05-23T08:42:41.824Z,22.50
2019-05-23T08:43:41.811Z,22.20
2019-05-23T08:44:41.788Z,22.39
2019-05-23T08:45:41.797Z,22.27
2019-05-23T08:46:41.775Z,21.50
2019-05-23T08:47:41.767Z,21.98
2019-05-23T08:48:41.767Z,21.80
2019-05-23T08:49:41.748Z,22.10
2019-05-23T08:50:41.739Z,22.19
2019-05-23T08:51:41.727Z,22.58
2019-05-23T08:52:41.717Z,22.20
2019-05-23T08:53:41.730Z,22.35
2019-05-23T08:54:41.697Z,23.54
2019-05-23T08:55:41.695Z,23.55
2019-05-23T08:56:41.666Z,24.05
2019-05-23T08:57:41.677Z,24.45
2019-05-23T08:58:41.662Z,23.54
2019-05-23T08:59:41.646Z,23.14
2019-05-23T09:00:41.638Z,24.05
2019-05-23T09:01:41.631Z,24.26
2019-05-23T09:02:41.626Z,24.24
2019-05-23T09:03:41.628Z,24.13
2019-05-23T09:05:01.221Z,23.62
2019-05-23T09:05:43.281Z,23.91
2019-05-23T09:06:41.575Z,23.83
2019-05-23T09:07:41.566Z,24.32
2019-05-23T09:08:42.387Z,24.53
2019-05-23T09:09:41.564Z,24.21
2019-05-23T09:10:41.542Z,24.00
2019-05-23T09:11:41.524Z,24.60
2019-05-23T09:12:41.524Z,24.49
2019-05-23T09:13:41.525Z,24.21
2019-05-23T09:14:41.514Z,24.41
2019-05-23T09:15:41.484Z,24.19
2019-05-23T09:16:41.501Z,23.69
2019-05-23T09:17:52.236Z,24.19
2019-05-23T09:18:42.465Z,24.00
2019-05-23T09:19:41.444Z,24.73
2019-05-23T09:20:41.433Z,25.55
2019-05-23T09:21:41.453Z,26.38
2019-05-23T09:22:41.422Z,27.19
2019-05-23T09:23:41.404Z,28.39
2019-05-23T09:24:42.063Z,30.21
2019-05-23T09:25:42.057Z,30.74
2019-05-23T09:26:41.382Z,31.57
2019-05-23T09:27:41.376Z,31.60
2019-05-23T09:28:41.372Z,32.23
2019-05-23T09:29:41.341Z,33.35
2019-05-23T09:30:41.352Z,34.46
2019-05-23T09:31:41.326Z,33.78
2019-05-23T09:32:41.311Z,34.38
2019-05-23T09:33:41.301Z,34.48
2019-05-23T09:34:41.286Z,34.89
2019-05-23T09:35:41.290Z,35.17
2019-05-23T09:36:41.271Z,34.28
2019-05-23T09:37:41.272Z,35.29
2019-05-23T09:38:41.242Z,35.71
2019-05-23T09:39:41.249Z,35.83
2019-05-23T09:40:41.231Z,35.72
2019-05-23T09:41:41.215Z,36.13
2019-05-23T09:42:41.210Z,36.52
2019-05-23T09:43:41.198Z,36.21
2019-05-23T09:44:41.188Z,36.21
2019-05-23T09:45:41.177Z,36.41
2019-05-23T09:46:41.168Z,35.79
2019-05-23T09:47:41.148Z,35.88
2019-05-23T09:48:41.140Z,36.27
2019-05-23T09:49:41.227Z,35.49
2019-05-23T09:50:41.116Z,35.59
2019-05-23T09:51:41.145Z,35.61
2019-05-23T09:52:41.095Z,35.81
2019-05-23T09:53:46.730Z,36.52
2019-05-23T09:54:42.100Z,37.23
2019-05-23T09:55:41.090Z,37.42
2019-05-23T09:56:41.065Z,37.72
2019-05-23T09:57:41.064Z,37.02
2019-05-23T09:58:41.028Z,36.91
2019-05-23T09:59:41.025Z,37.19
2019-05-23T10:00:41.005Z,35.89
2019-05-23T10:01:41.008Z,35.69
2019-05-23T10:02:41.019Z,36.19
2019-05-23T10:03:40.981Z,36.21
2019-05-23T10:04:40.990Z,36.22
2019-05-23T10:05:43.848Z,37.04
2019-05-23T10:06:40.953Z,37.06
2019-05-23T10:07:40.996Z,37.26
2019-05-23T10:08:40.934Z,37.06
2019-05-23T10:09:40.952Z,37.36
2019-05-23T10:10:40.922Z,37.88
2019-05-23T10:11:40.892Z,37.88
2019-05-23T10:12:40.950Z,37.86
2019-05-23T10:13:40.881Z,38.26
2019-05-23T10:14:40.863Z,37.84
2019-05-23T10:15:40.851Z,37.44
2019-05-23T10:16:40.840Z,37.34
2019-05-23T10:17:40.843Z,37.04
2019-05-23T10:18:40.821Z,37.46
2019-05-23T10:19:40.830Z,38.07
2019-05-23T10:20:40.832Z,38.07
2019-05-23T10:21:40.801Z,38.46
2019-05-23T10:22:40.779Z,38.26
2019-05-23T10:23:40.762Z,37.66
2019-05-23T10:24:40.769Z,37.84
2019-05-23T10:25:40.752Z,36.24
2019-05-23T10:26:40.729Z,36.74
2019-05-23T10:27:40.719Z,36.52
2019-05-23T10:28:40.719Z,36.82
2019-05-23T10:29:40.718Z,36.63
2019-05-23T10:30:40.693Z,37.24
2019-05-23T10:31:40.687Z,36.64
2019-05-23T10:32:40.688Z,36.64
2019-05-23T10:33:40.667Z,35.74
2019-05-23T10:34:40.673Z,34.84
2019-05-23T10:35:56.938Z,34.34
2019-05-23T10:36:41.625Z,34.84
2019-05-23T10:37:40.646Z,34.94
2019-05-23T10:39:49.556Z,35.26
2019-05-23T10:40:49.510Z,34.26
2019-05-23T10:41:49.497Z,33.38
2019-05-23T10:42:49.506Z,32.67
2019-05-23T10:43:49.499Z,32.68
2019-05-23T10:44:49.463Z,33.80
2019-05-23T10:45:49.464Z,34.59
2019-05-23T10:46:49.439Z,35.19
2019-05-23T10:47:49.426Z,35.89
2019-05-23T10:48:49.436Z,36.29
2019-05-23T10:49:49.416Z,36.41
2019-05-23T10:50:49.405Z,36.71
2019-05-23T10:51:49.418Z,36.51
2019-05-23T10:52:49.409Z,36.81
2019-05-23T10:53:49.374Z,36.79
2019-05-23T10:54:49.354Z,36.40
2019-05-23T10:55:49.357Z,36.58
2019-05-23T10:56:49.337Z,35.10
2019-05-23T10:57:49.323Z,35.39
2019-05-23T10:58:49.343Z,35.78
2019-05-23T10:59:49.303Z,36.08
2019-05-23T11:00:49.293Z,35.96
2019-05-23T11:01:49.286Z,34.16
2019-05-23T11:02:49.271Z,34.56
2019-05-23T11:03:49.283Z,34.96
2019-05-23T11:04:49.282Z,34.66
2019-05-23T11:05:49.245Z,34.26
2019-05-23T11:06:49.271Z,34.36
2019-05-23T11:07:49.239Z,34.16
2019-05-23T11:08:49.255Z,33.18
2019-05-23T11:09:49.259Z,33.41
2019-05-23T11:10:49.210Z,33.62
2019-05-23T11:11:49.191Z,33.73
2019-05-23T11:12:49.169Z,33.93
2019-05-23T11:13:49.180Z,33.33
2019-05-23T11:14:49.165Z,33.34
2019-05-23T11:15:49.149Z,33.64
2019-05-23T11:16:49.128Z,33.03
2019-05-23T11:17:53.084Z,33.43
2019-05-23T11:18:49.168Z,33.23
2019-05-23T11:19:49.100Z,33.12
2019-05-23T11:20:49.215Z,33.73
2019-05-23T11:21:49.077Z,34.03
2019-05-23T11:22:49.067Z,33.23
2019-05-23T11:23:49.095Z,33.53
2019-05-23T11:24:49.062Z,33.91
2019-05-23T11:25:49.037Z,33.71
2019-05-23T11:26:49.033Z,32.79
2019-05-23T11:27:49.064Z,32.79
2019-05-23T11:28:48.999Z,33.00
2019-05-23T11:29:48.995Z,31.61
2019-05-23T11:30:49.026Z,31.91
2019-05-23T11:31:48.977Z,31.61
2019-05-23T11:32:48.969Z,31.71
2019-05-23T11:33:48.970Z,31.21
2019-05-23T11:34:49.093Z,30.51
2019-05-23T11:35:48.933Z,30.31
2019-05-23T11:36:48.955Z,30.71
2019-05-23T11:37:48.904Z,30.19
2019-05-23T11:38:48.903Z,30.29
2019-05-23T11:39:51.145Z,29.99
2019-05-23T11:40:48.872Z,29.60
2019-05-23T11:41:48.873Z,29.30
2019-05-23T11:42:52.508Z,29.71
2019-05-23T11:43:48.854Z,29.32
2019-05-23T11:44:48.837Z,29.84
2019-05-23T11:45:48.822Z,30.44
2019-05-23T11:46:48.824Z,30.22
2019-05-23T11:47:48.822Z,29.82
2019-05-23T11:48:48.793Z,30.32
2019-05-23T11:49:48.871Z,30.61
2019-05-23T11:50:48.770Z,30.81
2019-05-23T11:51:48.773Z,29.81
2019-05-23T11:52:48.749Z,29.91
2019-05-23T11:54:05.869Z,30.41
2019-05-23T11:54:49.729Z,30.21
2019-05-23T11:55:53.272Z,30.40
2019-05-23T11:56:49.698Z,30.69
2019-05-23T11:57:48.688Z,30.49
2019-05-23T11:58:48.692Z,30.69
2019-05-23T11:59:48.677Z,30.11
2019-05-23T12:00:48.704Z,29.82
2019-05-23T12:01:48.657Z,29.82
2019-05-23T12:02:48.646Z,30.14
2019-05-23T12:03:48.630Z,30.95
2019-05-23T12:04:48.657Z,31.35
2019-05-23T12:05:48.631Z,31.14
2019-05-23T12:06:55.334Z,31.84
2019-05-23T12:07:49.588Z,31.34
2019-05-23T12:08:48.656Z,31.04
2019-05-23T12:09:48.588Z,31.64
2019-05-23T12:10:48.579Z,32.03
2019-05-23T12:11:48.568Z,31.52
2019-05-23T12:12:48.549Z,31.62
2019-05-23T12:13:48.560Z,32.23
2019-05-23T12:14:48.535Z,32.53
2019-05-23T12:15:48.506Z,31.52
2019-05-23T12:16:48.526Z,31.82
2019-05-23T12:17:48.484Z,32.53
2019-05-23T12:18:48.483Z,31.73
2019-05-23T12:19:48.496Z,31.71
2019-05-23T12:20:48.492Z,31.82
2019-05-23T12:21:48.463Z,32.12
2019-05-23T12:22:48.463Z,31.82
2019-05-23T12:23:48.474Z,31.93
2019-05-23T12:24:48.464Z,31.73
2019-05-23T12:25:48.421Z,32.12
2019-05-23T12:26:48.425Z,32.73
2019-05-23T12:27:48.740Z,32.04
2019-05-23T12:28:48.375Z,32.14
2019-05-23T12:29:48.380Z,32.64
2019-05-23T12:30:48.349Z,32.54
2019-05-23T12:31:49.778Z,32.54
2019-05-23T12:32:48.349Z,32.64
2019-05-23T12:33:48.342Z,32.76
2019-05-23T12:35:08.450Z,33.06
2019-05-23T12:35:49.327Z,33.06
2019-05-23T12:36:48.290Z,32.76
2019-05-23T12:37:48.278Z,33.28
2019-05-23T12:38:48.269Z,33.58
2019-05-23T12:39:48.299Z,33.58
2019-05-23T12:40:48.254Z,33.78
2019-05-23T12:41:48.226Z,33.47
2019-05-23T12:42:48.227Z,33.37
2019-05-23T12:43:48.537Z,33.47
2019-05-23T12:44:48.206Z,33.56
2019-05-23T12:45:48.193Z,33.26
2019-05-23T12:46:48.282Z,32.86
2019-05-23T12:47:48.184Z,33.36
2019-05-23T12:48:48.165Z,32.96
2019-05-23T12:49:48.163Z,32.96
2019-05-23T12:50:52.631Z,33.16
2019-05-23T12:51:49.133Z,33.46
2019-05-23T12:52:48.113Z,33.66
2019-05-23T12:53:48.103Z,33.54
2019-05-23T12:54:48.103Z,33.14